createdAt,value
2018-12-01T00:02:25.763Z,11.43
2018-12-01T00:04:56.264Z,10.75
2018-12-01T00:07:28.563Z,11.12
2018-12-01T00:09:57.953Z,11.00
2018-12-01T00:12:30.545Z,10.55
2018-12-01T00:15:03.094Z,10.18
2018-12-01T00:17:33.165Z,11.40
2018-12-01T00:20:03.711Z,11.33
2018-12-01T00:22:34.738Z,11.08
2018-12-01T00:25:07.412Z,10.68
2018-12-01T00:27:41.941Z,11.93
2018-12-01T00:30:15.906Z,11.45
2018-12-01T00:32:49.104Z,10.35
2018-12-01T00:35:19.668Z,11.60
2018-12-01T00:37:50.491Z,10.00
2018-12-01T00:40:22.148Z,10.45
2018-12-01T00:42:51.757Z,10.85
2018-12-01T00:45:23.913Z,10.68
2018-12-01T00:47:55.284Z,10.20
2018-12-01T00:50:26.026Z,12.35
2018-12-01T00:52:55.283Z,11.00
2018-12-01T00:55:24.503Z,10.88
2018-12-01T00:57:57.895Z,11.28
2018-12-01T01:00:28.887Z,9.78
2018-12-01T01:03:03.299Z,10.78
2018-12-01T01:05:32.798Z,10.43
2018-12-01T01:08:03.541Z,11.43
2018-12-01T01:10:34.729Z,9.08
2018-12-01T01:13:07.495Z,10.08
2018-12-01T01:15:38.470Z,10.32
2018-12-01T01:18:07.735Z,10.25
2018-12-01T01:20:38.687Z,11.03
2018-12-01T01:23:09.438Z,10.20
2018-12-01T01:25:41.172Z,10.72
2018-12-01T01:28:10.380Z,10.18
2018-12-01T01:30:39.856Z,8.93
2018-12-01T01:33:20.126Z,10.10
2018-12-01T01:35:50.387Z,11.40
2018-12-01T01:38:19.996Z,10.70
2018-12-01T01:41:10.135Z,10.58
2018-12-01T01:43:40.369Z,9.10
2018-12-01T01:46:12.017Z,9.70
2018-12-01T01:48:42.772Z,10.10
2018-12-01T01:51:15.107Z,11.70
2018-12-01T01:53:46.022Z,10.15
2018-12-01T01:56:15.255Z,10.40
2018-12-01T01:58:44.720Z,12.05
2018-12-01T02:01:16.954Z,11.70
2018-12-01T02:03:47.442Z,11.33
2018-12-01T02:06:16.682Z,10.90
2018-12-01T02:08:48.062Z,12.70
2018-12-01T02:11:18.831Z,10.70
2018-12-01T02:13:49.721Z,9.55
2018-12-01T02:16:18.947Z,11.83
2018-12-01T02:18:49.711Z,11.30
2018-12-01T02:21:20.378Z,10.98
2018-12-01T02:23:49.602Z,12.25
2018-12-01T02:26:19.544Z,12.53
2018-12-01T02:28:49.492Z,11.43
2018-12-01T02:31:25.140Z,10.45
2018-12-01T02:34:09.095Z,11.00
2018-12-01T02:36:39.156Z,12.33
2018-12-01T02:39:12.858Z,10.88
2018-12-01T02:41:53.552Z,10.90
2018-12-01T02:44:37.491Z,12.23
2018-12-01T02:47:10.452Z,11.40
2018-12-01T02:49:40.583Z,11.65
2018-12-01T02:52:11.557Z,11.33
2018-12-01T02:54:42.729Z,11.00
2018-12-01T02:57:13.977Z,11.75
2018-12-01T02:59:46.561Z,12.15
2018-12-01T03:02:16.034Z,11.75
2018-12-01T03:04:45.366Z,12.13
2018-12-01T03:07:18.853Z,11.48
2018-12-01T03:09:48.194Z,10.58
2018-12-01T03:12:18.623Z,11.35
2018-12-01T03:14:48.277Z,11.70
2018-12-01T03:17:21.023Z,11.40
2018-12-01T03:19:52.360Z,11.55
2018-12-01T03:22:26.507Z,12.03
2018-12-01T03:24:58.538Z,10.38
2018-12-01T03:27:35.522Z,12.07
2018-12-01T03:30:10.576Z,12.23
2018-12-01T03:32:43.685Z,10.63
2018-12-01T03:35:13.961Z,11.63
2018-12-01T03:37:46.282Z,10.50
2018-12-01T03:40:18.531Z,10.95
2018-12-01T03:42:47.851Z,9.85
2018-12-01T03:45:19.884Z,9.90
2018-12-01T03:47:50.651Z,11.65
2018-12-01T03:50:23.748Z,9.80
2018-12-01T03:52:56.786Z,11.43
2018-12-01T03:55:28.758Z,9.75
2018-12-01T03:58:01.144Z,10.75
2018-12-01T04:00:31.190Z,10.25
2018-12-01T04:03:02.414Z,10.85
2018-12-01T04:05:37.146Z,11.20
2018-12-01T04:08:17.392Z,10.40
2018-12-01T04:11:04.928Z,9.28
2018-12-01T04:16:38.836Z,10.43
2018-12-01T04:37:55.038Z,8.50
2018-12-01T04:40:26.474Z,8.43
2018-12-01T04:46:06.802Z,8.00
2018-12-01T04:57:14.169Z,10.13
2018-12-01T05:00:02.323Z,7.42
2018-12-01T05:05:58.848Z,8.40
2018-12-01T05:08:30.401Z,8.15
2018-12-01T05:11:06.549Z,9.63
2018-12-01T05:13:37.650Z,8.60
2018-12-01T05:16:08.341Z,7.47
2018-12-01T05:18:37.595Z,8.50
2018-12-01T05:21:08.357Z,7.75
2018-12-01T05:23:37.635Z,7.70
2018-12-01T05:26:06.936Z,8.28
2018-12-01T05:28:38.055Z,7.35
2018-12-01T05:31:08.403Z,8.00
2018-12-01T05:33:37.618Z,8.03
2018-12-01T05:36:06.846Z,7.30
2018-12-01T05:38:38.414Z,6.85
2018-12-01T05:41:10.296Z,8.95
2018-12-01T05:43:39.529Z,7.28
2018-12-01T05:46:09.716Z,7.22
2018-12-01T05:48:41.281Z,7.22
2018-12-01T05:51:13.791Z,6.80
2018-12-01T05:53:43.024Z,7.33
2018-12-01T05:56:13.210Z,6.78
2018-12-01T05:58:46.107Z,16.80
2018-12-01T06:01:21.417Z,22.67
2018-12-01T06:03:52.472Z,26.30
2018-12-01T06:06:24.161Z,31.90
2018-12-01T06:08:53.507Z,21.02
2018-12-01T06:11:24.042Z,19.50
2018-12-01T06:13:58.014Z,14.25
2018-12-01T06:19:07.849Z,13.70
2018-12-01T06:21:40.458Z,9.65
2018-12-01T06:24:11.301Z,8.73
2018-12-01T06:26:44.471Z,7.90
2018-12-01T06:29:18.450Z,8.15
2018-12-01T06:31:50.050Z,8.20
2018-12-01T06:34:23.420Z,7.60
2018-12-01T06:36:56.388Z,7.20
2018-12-01T06:39:33.048Z,6.20
2018-12-01T06:45:05.221Z,6.37
2018-12-01T06:47:35.175Z,6.20
2018-12-01T06:50:09.774Z,6.35
2018-12-01T06:52:45.995Z,6.12
2018-12-01T06:55:17.403Z,5.87
2018-12-01T07:00:36.069Z,6.53
2018-12-01T07:05:55.577Z,7.85
2018-12-01T07:08:36.468Z,9.08
2018-12-01T07:11:14.904Z,7.70
2018-12-01T07:19:33.539Z,8.00
2018-12-01T07:22:10.842Z,6.92
2018-12-01T07:24:42.818Z,7.72
2018-12-01T07:27:14.339Z,7.30
2018-12-01T07:29:44.617Z,5.80
2018-12-01T07:32:20.943Z,6.58
2018-12-01T07:34:51.142Z,7.62
2018-12-01T07:37:21.911Z,6.92
2018-12-01T07:39:51.958Z,6.85
2018-12-01T07:42:22.394Z,6.60
2018-12-01T07:44:53.754Z,7.55
2018-12-01T07:47:25.698Z,6.70
2018-12-01T07:49:54.950Z,8.08
2018-12-01T07:52:26.421Z,6.35
2018-12-01T07:54:57.730Z,8.08
2018-12-01T07:57:28.022Z,7.50
2018-12-01T07:59:57.847Z,7.55
2018-12-01T08:02:27.758Z,8.58
2018-12-01T08:04:58.598Z,7.90
2018-12-01T08:07:30.872Z,8.50
2018-12-01T08:10:07.114Z,7.37
2018-12-01T08:12:39.743Z,7.45
2018-12-01T08:15:12.299Z,8.60
2018-12-01T08:17:48.256Z,7.72
2018-12-01T08:20:21.706Z,7.60
2018-12-01T08:22:53.428Z,7.92
2018-12-01T08:25:26.321Z,9.40
2018-12-01T08:27:59.763Z,8.53
2018-12-01T08:30:34.803Z,9.63
2018-12-01T08:33:07.542Z,9.55
2018-12-01T08:35:38.263Z,7.25
2018-12-01T08:38:28.658Z,8.63
2018-12-01T09:08:27.198Z,10.45
2018-12-01T09:27:57.312Z,8.95
2018-12-01T09:30:29.015Z,7.08
2018-12-01T09:36:52.564Z,23.73
2018-12-01T09:39:37.234Z,17.80
2018-12-01T09:42:07.664Z,13.00
2018-12-01T09:44:38.766Z,9.63
2018-12-01T09:47:08.734Z,9.00
2018-12-01T09:49:39.173Z,5.75
2018-12-01T09:52:15.066Z,6.40
2018-12-01T09:54:44.825Z,5.25
2018-12-01T09:57:15.342Z,4.90
2018-12-01T09:59:45.097Z,12.28
2018-12-01T10:02:17.620Z,6.42
2018-12-01T10:04:48.581Z,5.10
2018-12-01T10:07:19.436Z,4.28
2018-12-01T10:09:51.608Z,5.80
2018-12-01T10:12:21.169Z,4.17
2018-12-01T10:14:51.998Z,4.75
2018-12-01T10:17:25.740Z,4.78
2018-12-01T10:19:58.643Z,4.42
2018-12-01T10:22:32.181Z,4.47
2018-12-01T10:25:05.603Z,4.70
2018-12-01T10:27:37.547Z,5.08
2018-12-01T10:30:12.366Z,4.78
2018-12-01T10:32:46.071Z,5.05
2018-12-01T10:35:17.181Z,4.40
2018-12-01T10:37:50.309Z,4.37
2018-12-01T10:40:21.197Z,4.15
2018-12-01T10:42:51.844Z,5.53
2018-12-01T10:45:22.568Z,4.05
2018-12-01T10:47:52.959Z,4.25
2018-12-01T10:50:26.331Z,3.65
2018-12-01T10:53:00.563Z,4.53
2018-12-01T10:55:34.225Z,4.03
2018-12-01T10:58:12.441Z,4.00
2018-12-01T11:00:48.901Z,3.95
2018-12-01T11:03:29.054Z,4.45
2018-12-01T11:05:59.971Z,3.87
2018-12-01T11:08:29.501Z,6.35
2018-12-01T11:10:58.999Z,5.50
2018-12-01T11:13:35.272Z,4.70
2018-12-01T11:16:07.348Z,5.40
2018-12-01T11:21:37.201Z,5.35
2018-12-01T11:24:08.569Z,5.45
2018-12-01T11:26:44.954Z,4.72
2018-12-01T11:29:14.728Z,4.87
2018-12-01T11:31:46.126Z,5.33
2018-12-01T11:34:15.481Z,5.60
2018-12-01T11:36:47.872Z,6.08
2018-12-01T11:39:17.507Z,5.30
2018-12-01T11:41:48.111Z,4.53
2018-12-01T11:44:18.381Z,5.47
2018-12-01T11:46:49.047Z,7.83
2018-12-01T11:49:21.231Z,6.83
2018-12-01T11:51:50.638Z,5.33
2018-12-01T11:54:24.855Z,6.25
2018-12-01T11:56:54.487Z,6.47
2018-12-01T11:59:25.206Z,4.92
2018-12-01T12:02:00.353Z,4.97
2018-12-01T12:04:26.460Z,5.78
2018-12-01T12:06:56.259Z,4.60
2018-12-01T12:09:33.726Z,4.95
2018-12-01T12:12:05.020Z,3.80
2018-12-01T12:14:34.982Z,3.80
2018-12-01T12:17:04.322Z,4.20
2018-12-01T12:19:33.737Z,5.15
2018-12-01T12:22:03.972Z,4.20
2018-12-01T12:24:34.083Z,3.72
2018-12-01T12:27:03.456Z,4.35
2018-12-01T12:29:33.916Z,3.30
2018-12-01T12:32:05.089Z,4.05
2018-12-01T12:34:34.506Z,4.10
2018-12-01T12:37:07.702Z,4.03
2018-12-01T12:39:37.676Z,3.27
2018-12-01T12:42:08.807Z,3.90
2018-12-01T12:44:41.785Z,3.15
2018-12-01T12:47:11.052Z,3.45
2018-12-01T12:49:42.836Z,3.40
2018-12-01T12:59:06.557Z,3.20
2018-12-01T13:01:37.778Z,2.83
2018-12-01T13:04:10.497Z,2.80
2018-12-01T13:06:42.393Z,3.45
2018-12-01T13:09:14.020Z,3.27
2018-12-01T13:11:48.910Z,2.67
2018-12-01T13:14:20.842Z,2.90
2018-12-01T13:16:51.086Z,2.62
2018-12-01T13:19:26.427Z,3.45
2018-12-01T13:22:09.141Z,2.80
2018-12-01T13:24:41.875Z,3.95
2018-12-01T13:27:20.643Z,3.33
2018-12-01T13:29:51.713Z,3.10
2018-12-01T13:32:28.197Z,3.33
2018-12-01T13:34:59.213Z,1.90
2018-12-01T13:37:28.767Z,2.80
2018-12-01T13:39:59.721Z,2.70
2018-12-01T13:42:32.854Z,3.10
2018-12-01T13:45:08.851Z,3.22
2018-12-01T13:47:39.726Z,2.25
2018-12-01T13:50:13.227Z,2.47
2018-12-01T13:52:45.421Z,2.30
2018-12-01T13:55:16.621Z,2.85
2018-12-01T13:57:45.977Z,3.27
2018-12-01T14:00:18.097Z,4.42
2018-12-01T14:02:48.073Z,3.37
2018-12-01T14:05:17.607Z,3.00
2018-12-01T14:07:47.025Z,2.47
2018-12-01T14:10:22.606Z,2.85
2018-12-01T14:12:53.288Z,2.40
2018-12-01T14:15:23.835Z,1.90
2018-12-01T14:17:53.251Z,2.27
2018-12-01T14:20:22.503Z,2.72
2018-12-01T14:22:52.185Z,1.98
2018-12-01T14:25:22.324Z,1.70
2018-12-01T14:27:59.783Z,1.85
2018-12-01T14:30:30.228Z,2.45
2018-12-01T14:32:59.719Z,2.65
2018-12-01T14:35:31.172Z,2.47
2018-12-01T14:38:03.315Z,2.87
2018-12-01T14:40:33.788Z,3.05
2018-12-01T14:43:03.024Z,4.20
2018-12-01T14:45:32.504Z,2.77
2018-12-01T14:48:01.868Z,2.60
2018-12-01T14:50:31.714Z,3.10
2018-12-01T14:53:01.757Z,3.02
2018-12-01T14:55:31.643Z,2.60
2018-12-01T14:58:01.651Z,3.52
2018-12-01T15:00:31.153Z,2.30
2018-12-01T15:03:03.363Z,1.95
2018-12-01T15:05:32.628Z,2.10
2018-12-01T15:08:01.879Z,2.37
2018-12-01T15:10:31.307Z,2.05
2018-12-01T15:13:00.691Z,2.47
2018-12-01T15:15:29.944Z,3.90
2018-12-01T15:17:59.650Z,4.05
2018-12-01T15:20:32.674Z,2.27
2018-12-01T15:23:02.664Z,2.25
2018-12-01T15:25:33.073Z,7.30
2018-12-01T15:28:02.597Z,2.62
2018-12-01T15:30:33.190Z,3.92
2018-12-01T15:33:14.733Z,2.98
2018-12-01T15:35:44.999Z,2.70
2018-12-01T15:38:14.872Z,1.72
2018-12-01T15:40:47.933Z,2.10
2018-12-01T15:43:17.357Z,2.15
2018-12-01T15:45:47.722Z,2.77
2018-12-01T15:48:18.323Z,5.33
2018-12-01T15:50:48.918Z,3.17
2018-12-01T15:53:18.323Z,4.85
2018-12-01T15:55:47.686Z,6.87
2018-12-01T15:58:17.003Z,5.83
2018-12-01T16:00:46.800Z,4.05
2018-12-01T16:03:17.017Z,2.37
2018-12-01T16:05:48.446Z,7.87
2018-12-01T16:08:18.669Z,5.80
2018-12-01T16:10:49.682Z,5.58
2018-12-01T16:13:21.480Z,6.37
2018-12-01T16:15:58.677Z,6.62
2018-12-01T16:18:32.652Z,5.50
2018-12-01T16:21:05.729Z,5.25
2018-12-01T16:23:36.665Z,5.03
2018-12-01T16:26:07.652Z,5.50
2018-12-01T16:28:39.815Z,10.60
2018-12-01T16:31:09.087Z,12.15
2018-12-01T16:33:46.671Z,7.67
2018-12-01T16:36:15.945Z,9.88
2018-12-01T16:38:46.323Z,12.58
2018-12-01T16:41:23.730Z,17.67
2018-12-01T16:43:54.584Z,8.58
2018-12-01T16:46:25.151Z,28.65
2018-12-01T16:48:54.851Z,19.25
2018-12-01T16:51:24.591Z,24.02
2018-12-01T16:53:54.948Z,12.47
2018-12-01T16:56:24.270Z,16.17
2018-12-01T16:58:57.339Z,32.08
2018-12-01T17:01:26.766Z,9.68
2018-12-01T17:03:56.531Z,3.98
2018-12-01T17:06:26.233Z,4.10
2018-12-01T17:08:56.927Z,3.45
2018-12-01T17:11:33.414Z,33.30
2018-12-01T17:14:07.955Z,15.05
2018-12-01T17:16:42.409Z,10.93
2018-12-01T17:19:16.818Z,11.60
2018-12-01T17:21:55.169Z,8.83
2018-12-01T17:24:25.841Z,3.25
2018-12-01T17:26:55.307Z,2.83
2018-12-01T17:29:30.106Z,2.75
2018-12-01T17:32:01.188Z,6.67
2018-12-01T17:34:31.981Z,6.45
2018-12-01T17:37:02.279Z,6.55
2018-12-01T17:39:32.182Z,7.55
2018-12-01T17:42:06.119Z,6.62
2018-12-01T17:44:45.912Z,5.05
2018-12-01T17:47:15.194Z,6.50
2018-12-01T17:49:46.271Z,6.40
2018-12-01T17:52:26.969Z,7.03
2018-12-01T17:54:57.259Z,8.50
2018-12-01T17:57:26.475Z,7.67
2018-12-01T17:59:56.354Z,8.63
2018-12-01T18:02:28.350Z,9.18
2018-12-01T18:04:57.640Z,6.25
2018-12-01T18:07:27.614Z,7.12
2018-12-01T18:09:56.898Z,3.90
2018-12-01T18:12:27.277Z,2.87
2018-12-01T18:15:38.726Z,2.60
2018-12-01T18:18:09.020Z,2.70
2018-12-01T18:20:38.552Z,3.02
2018-12-01T18:23:09.576Z,3.45
2018-12-01T18:25:46.240Z,4.62
2018-12-01T18:28:38.388Z,5.00
2018-12-01T18:31:17.814Z,5.97
2018-12-01T18:34:05.329Z,5.20
2018-12-01T18:36:38.458Z,3.40
2018-12-01T18:39:16.518Z,3.47
2018-12-01T18:41:46.970Z,3.77
2018-12-01T18:44:16.216Z,4.50
2018-12-01T18:46:47.263Z,3.67
2018-12-01T18:49:16.769Z,5.22
2018-12-01T18:51:48.420Z,4.95
2018-12-01T18:54:22.162Z,5.50
2018-12-01T18:56:56.523Z,5.80
2018-12-01T18:59:29.399Z,4.12
2018-12-01T19:02:04.884Z,4.47
2018-12-01T19:04:42.648Z,4.00
2018-12-01T19:07:20.978Z,4.10
2018-12-01T19:10:04.205Z,4.85
2018-12-01T19:12:44.174Z,7.12
2018-12-01T19:15:56.579Z,7.05
2018-12-01T19:18:28.814Z,4.08
2018-12-01T19:21:05.772Z,3.37
2018-12-01T19:23:38.830Z,4.90
2018-12-01T19:26:13.852Z,4.05
2018-12-01T19:28:49.445Z,5.87
2018-12-01T19:31:22.433Z,4.42
2018-12-01T19:33:56.023Z,5.47
2018-12-01T19:36:32.994Z,6.60
2018-12-01T19:39:06.159Z,4.55
2018-12-01T19:41:36.494Z,6.03
2018-12-01T19:44:07.351Z,7.37
2018-12-01T19:46:40.267Z,8.08
2018-12-01T19:49:09.784Z,11.38
2018-12-01T19:51:40.258Z,32.03
2018-12-01T19:54:10.206Z,25.15
2018-12-01T19:56:39.856Z,26.05
2018-12-01T19:59:11.931Z,22.58
2018-12-01T20:02:00.094Z,21.70
2018-12-01T20:04:33.218Z,15.93
2018-12-01T20:07:02.884Z,13.70
2018-12-01T20:09:33.311Z,12.13
2018-12-01T20:12:04.646Z,8.45
2018-12-01T20:14:36.203Z,7.40
2018-12-01T20:17:08.512Z,7.58
2018-12-01T20:19:39.060Z,6.80
2018-12-01T20:22:10.037Z,7.47
2018-12-01T20:24:39.469Z,7.10
2018-12-01T20:27:10.011Z,8.10
2018-12-01T20:29:41.427Z,8.35
2018-12-01T20:32:11.487Z,9.20
2018-12-01T20:34:40.923Z,7.53
2018-12-01T20:37:15.843Z,8.60
2018-12-01T20:39:46.639Z,9.28
2018-12-01T20:42:16.175Z,9.50
2018-12-01T20:44:46.182Z,9.53
2018-12-01T20:47:15.865Z,10.65
2018-12-01T20:49:47.001Z,11.85
2018-12-01T20:52:18.087Z,23.55
2018-12-01T20:54:52.137Z,16.75
2018-12-01T20:57:27.175Z,10.43
2018-12-01T21:00:00.842Z,8.20
2018-12-01T21:02:34.037Z,15.75
2018-12-01T21:05:03.490Z,15.30
2018-12-01T21:07:34.132Z,17.05
2018-12-01T21:10:06.962Z,18.20
2018-12-01T21:12:42.613Z,12.80
2018-12-01T21:15:21.581Z,18.27
2018-12-01T21:17:52.535Z,15.90
2018-12-01T21:20:25.420Z,15.93
2018-12-01T21:22:59.830Z,16.02
2018-12-01T21:25:39.272Z,13.58
2018-12-01T21:28:14.016Z,9.88
2018-12-01T21:30:48.116Z,15.83
2018-12-01T21:33:33.441Z,18.95
2018-12-01T21:38:43.256Z,13.80
2018-12-01T21:41:20.207Z,10.30
2018-12-01T21:43:51.967Z,6.75
2018-12-01T21:46:24.459Z,6.20
2018-12-01T21:48:58.129Z,5.72
2018-12-01T21:51:31.290Z,6.03
2018-12-01T21:54:03.917Z,5.85
2018-12-01T21:56:36.308Z,5.65
2018-12-01T21:59:08.153Z,6.25
2018-12-01T22:01:40.910Z,6.60
2018-12-01T22:06:50.133Z,5.35
2018-12-01T22:09:20.213Z,6.15
2018-12-01T22:11:51.888Z,7.65
2018-12-01T22:14:21.825Z,4.97
2018-12-01T22:16:53.358Z,5.90
2018-12-01T22:19:26.257Z,6.37
2018-12-01T22:21:59.007Z,4.92
2018-12-01T22:24:28.264Z,5.58
2018-12-01T22:27:02.939Z,4.53
2018-12-01T22:29:34.648Z,4.37
2018-12-01T22:32:05.433Z,5.00
2018-12-01T22:34:41.220Z,5.78
2018-12-01T22:37:13.985Z,7.35
2018-12-01T22:39:43.509Z,6.72
2018-12-01T22:42:15.181Z,7.35
2018-12-01T22:44:44.663Z,7.60
2018-12-01T22:47:15.833Z,7.45
2018-12-01T22:49:45.213Z,6.05
2018-12-01T22:52:14.576Z,7.60
2018-12-01T22:54:45.026Z,7.20
2018-12-01T22:57:15.306Z,5.70
2018-12-01T22:59:44.598Z,5.35
2018-12-01T23:02:13.999Z,4.08
2018-12-01T23:04:43.451Z,4.90
2018-12-01T23:07:12.739Z,5.78
2018-12-01T23:09:42.173Z,4.45
2018-12-01T23:12:13.494Z,5.65
2018-12-01T23:14:42.715Z,4.90
2018-12-01T23:17:12.598Z,4.70
2018-12-01T23:19:42.936Z,6.62
2018-12-01T23:22:12.379Z,5.87
2018-12-01T23:24:41.626Z,4.70
2018-12-01T23:27:11.417Z,5.22
2018-12-01T23:29:41.230Z,5.37
2018-12-01T23:32:11.656Z,4.62
2018-12-01T23:34:40.923Z,5.72
2018-12-01T23:37:12.193Z,5.62
2018-12-01T23:39:41.388Z,5.50
2018-12-01T23:42:10.810Z,4.60
2018-12-01T23:44:40.015Z,4.92
2018-12-01T23:47:10.396Z,4.62
2018-12-01T23:49:39.566Z,3.67
2018-12-01T23:52:09.896Z,4.33
2018-12-01T23:54:39.974Z,4.30
2018-12-01T23:57:10.515Z,4.20
2018-12-01T23:59:39.818Z,3.77
